EJU17TF LEZL-LSGG
Flight info
| Callsign | EJU17TF |
|---|---|
| Flight time | 1h 56m |
| Altitude | 34000 |
| Route | HIJ M30 PARKA N858 TLD/N0435F380 N858 SIE T430 LPA T429 TOPTU DCT TOU DCT GAI/N0432F360 DCT MEN/N0404F300 DCT NINUN DCT LATAM DCT ETREK DCT LUXAN G53 LTP Z16 BELUS |
| Aircraft | A320/M-SDE2E3FGHIJ1RWXYZ/LB1 |
Departure
| Time | 2026-04-15 09:53 |
|---|---|
| Airport | Seville Airport (LEZL) |
Arrival
| Time | 2026-04-15 11:49 |
|---|---|
| Airport | Geneva International Airport (LSGG) |
| Time | Latitude | Longitude | Altitude | Speed | Heading |
|---|---|---|---|---|---|
| 2026-04-15 09:22 | 37.42280 | -5.89885 | 94 ft | 0 kts | 314° |
| 2026-04-15 09:42 | 37.42272 | -5.89876 | 95 ft | 4 kts | 312° |
| 2026-04-15 09:42 | 37.42256 | -5.89850 | 95 ft | 4 kts | 302° |
| 2026-04-15 09:42 | 37.42243 | -5.89820 | 92 ft | 4 kts | 284° |
| 2026-04-15 09:43 | 37.42242 | -5.89789 | 94 ft | 4 kts | 240° |
| 2026-04-15 09:43 | 37.42247 | -5.89780 | 93 ft | 0 kts | 224° |
| 2026-04-15 09:47 | 37.42246 | -5.89781 | 93 ft | 1 kts | 224° |
| 2026-04-15 09:47 | 37.42237 | -5.89793 | 94 ft | 3 kts | 225° |
| 2026-04-15 09:47 | 37.42219 | -5.89815 | 94 ft | 4 kts | 225° |
| 2026-04-15 09:48 | 37.42194 | -5.89848 | 94 ft | 6 kts | 226° |
| 2026-04-15 09:48 | 37.42160 | -5.89892 | 95 ft | 8 kts | 224° |
| 2026-04-15 09:48 | 37.42116 | -5.89945 | 94 ft | 10 kts | 224° |
| 2026-04-15 09:48 | 37.42065 | -5.90010 | 95 ft | 11 kts | 227° |
| 2026-04-15 09:49 | 37.42053 | -5.90110 | 94 ft | 12 kts | 269° |
| 2026-04-15 09:49 | 37.42052 | -5.90205 | 94 ft | 10 kts | 269° |
| 2026-04-15 09:49 | 37.42046 | -5.90287 | 94 ft | 9 kts | 244° |
| 2026-04-15 09:49 | 37.41999 | -5.90305 | 94 ft | 6 kts | 187° |
| 2026-04-15 09:50 | 37.41980 | -5.90336 | 95 ft | 4 kts | 253° |
| 2026-04-15 09:50 | 37.41979 | -5.90397 | 94 ft | 12 kts | 269° |
| 2026-04-15 09:50 | 37.41978 | -5.90549 | 93 ft | 21 kts | 270° |
| 2026-04-15 09:50 | 37.41978 | -5.90738 | 92 ft | 23 kts | 269° |
| 2026-04-15 09:51 | 37.41977 | -5.90945 | 91 ft | 25 kts | 270° |
| 2026-04-15 09:51 | 37.41977 | -5.91168 | 90 ft | 24 kts | 269° |
| 2026-04-15 09:51 | 37.41926 | -5.91318 | 89 ft | 17 kts | 195° |
| 2026-04-15 09:51 | 37.41845 | -5.91251 | 89 ft | 14 kts | 122° |
| 2026-04-15 09:52 | 37.41805 | -5.91170 | 91 ft | 9 kts | 122° |
| 2026-04-15 09:52 | 37.41788 | -5.91110 | 90 ft | 6 kts | 91° |
| 2026-04-15 09:52 | 37.41789 | -5.90968 | 93 ft | 43 kts | 89° |
| 2026-04-15 09:52 | 37.41791 | -5.90301 | 98 ft | 108 kts | 90° |
| 2026-04-15 09:53 | 37.41795 | -5.89123 | 105 ft | 159 kts | 89° |
| 2026-04-15 09:53 | 37.41801 | -5.87707 | 697 ft | 161 kts | 90° |
| 2026-04-15 09:53 | 37.41779 | -5.86259 | 1319 ft | 170 kts | 91° |
| 2026-04-15 09:53 | 37.41747 | -5.84716 | 1686 ft | 187 kts | 90° |
| 2026-04-15 09:54 | 37.41729 | -5.82997 | 2105 ft | 207 kts | 89° |
| 2026-04-15 09:54 | 37.41833 | -5.81100 | 2572 ft | 228 kts | 76° |
| 2026-04-15 09:54 | 37.42249 | -5.79070 | 3054 ft | 251 kts | 75° |
| 2026-04-15 09:54 | 37.42831 | -5.76954 | 3797 ft | 261 kts | 57° |
| 2026-04-15 09:55 | 37.44143 | -5.75389 | 4633 ft | 265 kts | 26° |
| 2026-04-15 09:55 | 37.45862 | -5.74535 | 5524 ft | 269 kts | 22° |
| 2026-04-15 09:55 | 37.47583 | -5.73563 | 6444 ft | 271 kts | 26° |
| 2026-04-15 09:55 | 37.49279 | -5.72498 | 7349 ft | 274 kts | 26° |
| 2026-04-15 09:56 | 37.50983 | -5.71401 | 8200 ft | 277 kts | 26° |
| 2026-04-15 09:56 | 37.52710 | -5.70296 | 9080 ft | 279 kts | 25° |
| 2026-04-15 09:56 | 37.56240 | -5.68093 | 10588 ft | 294 kts | 24° |
| 2026-04-15 09:57 | 37.58153 | -5.66923 | 10886 ft | 316 kts | 24° |
| 2026-04-15 09:57 | 37.60161 | -5.65705 | 11503 ft | 324 kts | 24° |
| 2026-04-15 09:57 | 37.62206 | -5.64466 | 12240 ft | 328 kts | 23° |
| 2026-04-15 09:57 | 37.64276 | -5.63213 | 13012 ft | 331 kts | 23° |
| 2026-04-15 09:58 | 37.66363 | -5.61949 | 13761 ft | 334 kts | 23° |
| 2026-04-15 09:58 | 37.68469 | -5.60673 | 14443 ft | 338 kts | 24° |
| 2026-04-15 09:58 | 37.70605 | -5.59376 | 15050 ft | 343 kts | 24° |
| 2026-04-15 09:58 | 37.72766 | -5.58059 | 15650 ft | 347 kts | 24° |
| 2026-04-15 09:59 | 37.74956 | -5.56725 | 16251 ft | 352 kts | 24° |
| 2026-04-15 09:59 | 37.77175 | -5.55370 | 16837 ft | 357 kts | 24° |
| 2026-04-15 09:59 | 37.79394 | -5.54017 | 17424 ft | 361 kts | 24° |
| 2026-04-15 09:59 | 37.81701 | -5.52610 | 18014 ft | 366 kts | 24° |
| 2026-04-15 10:00 | 37.83978 | -5.51220 | 18578 ft | 371 kts | 24° |
| 2026-04-15 10:00 | 37.86343 | -5.49777 | 19100 ft | 375 kts | 24° |
| 2026-04-15 10:00 | 37.88702 | -5.48336 | 19624 ft | 378 kts | 24° |
| 2026-04-15 10:00 | 37.91048 | -5.46900 | 20129 ft | 381 kts | 24° |
| 2026-04-15 10:01 | 37.93450 | -5.45427 | 20644 ft | 385 kts | 24° |
| 2026-04-15 10:01 | 37.95902 | -5.43923 | 21151 ft | 389 kts | 24° |
| 2026-04-15 10:01 | 37.98315 | -5.42443 | 21645 ft | 392 kts | 23° |
| 2026-04-15 10:01 | 38.00814 | -5.40911 | 22145 ft | 395 kts | 23° |
| 2026-04-15 10:02 | 38.03300 | -5.39389 | 22624 ft | 399 kts | 23° |
| 2026-04-15 10:02 | 38.05807 | -5.37849 | 23105 ft | 402 kts | 23° |
| 2026-04-15 10:02 | 38.08333 | -5.36297 | 23585 ft | 405 kts | 23° |
| 2026-04-15 10:02 | 38.10880 | -5.34727 | 24002 ft | 409 kts | 23° |
| 2026-04-15 10:03 | 38.13447 | -5.33142 | 24385 ft | 412 kts | 23° |
| 2026-04-15 10:03 | 38.16030 | -5.31549 | 24786 ft | 414 kts | 23° |
| 2026-04-15 10:03 | 38.18629 | -5.29946 | 25180 ft | 416 kts | 23° |
| 2026-04-15 10:03 | 38.21243 | -5.28330 | 25559 ft | 419 kts | 23° |
| 2026-04-15 10:04 | 38.23871 | -5.26703 | 25929 ft | 422 kts | 23° |
| 2026-04-15 10:04 | 38.26518 | -5.25064 | 26302 ft | 424 kts | 23° |
| 2026-04-15 10:04 | 38.29179 | -5.23419 | 26666 ft | 427 kts | 23° |
| 2026-04-15 10:04 | 38.31858 | -5.21761 | 27030 ft | 429 kts | 23° |
| 2026-04-15 10:05 | 38.34553 | -5.20090 | 27381 ft | 432 kts | 23° |
| 2026-04-15 10:05 | 38.37263 | -5.18406 | 27734 ft | 435 kts | 23° |
| 2026-04-15 10:05 | 38.39988 | -5.16710 | 28084 ft | 437 kts | 23° |
| 2026-04-15 10:05 | 38.42695 | -5.15029 | 28423 ft | 440 kts | 23° |
| 2026-04-15 10:06 | 38.45453 | -5.13316 | 28771 ft | 442 kts | 23° |
| 2026-04-15 10:06 | 38.48278 | -5.11752 | 29098 ft | 442 kts | 15° |
| 2026-04-15 10:06 | 38.51244 | -5.10772 | 29425 ft | 440 kts | 6° |
| 2026-04-15 10:06 | 38.54287 | -5.10418 | 29762 ft | 439 kts | 356° |
| 2026-04-15 10:07 | 38.57331 | -5.10632 | 30087 ft | 438 kts | 352° |
| 2026-04-15 10:07 | 38.60376 | -5.10955 | 30395 ft | 441 kts | 352° |
| 2026-04-15 10:07 | 38.63440 | -5.11275 | 30666 ft | 442 kts | 352° |
| 2026-04-15 10:07 | 38.66513 | -5.11587 | 30937 ft | 444 kts | 352° |
| 2026-04-15 10:08 | 38.69598 | -5.11896 | 31219 ft | 445 kts | 352° |
| 2026-04-15 10:08 | 38.72693 | -5.12206 | 31484 ft | 447 kts | 352° |
| 2026-04-15 10:08 | 38.75798 | -5.12517 | 31783 ft | 447 kts | 352° |
| 2026-04-15 10:08 | 38.78895 | -5.12830 | 32179 ft | 446 kts | 351° |
| 2026-04-15 10:09 | 38.81987 | -5.13144 | 32539 ft | 445 kts | 351° |
| 2026-04-15 10:09 | 38.85073 | -5.13457 | 32922 ft | 444 kts | 351° |
| 2026-04-15 10:09 | 38.88147 | -5.13771 | 33293 ft | 443 kts | 351° |
| 2026-04-15 10:09 | 38.91216 | -5.14084 | 33666 ft | 442 kts | 351° |
| 2026-04-15 10:10 | 38.94277 | -5.14389 | 34056 ft | 441 kts | 352° |
| 2026-04-15 10:10 | 38.97360 | -5.14306 | 34404 ft | 446 kts | 2° |
| 2026-04-15 10:10 | 39.00418 | -5.13534 | 34708 ft | 451 kts | 12° |
| 2026-04-15 10:10 | 39.03362 | -5.12069 | 34973 ft | 458 kts | 22° |
| 2026-04-15 10:11 | 39.06114 | -5.09968 | 35218 ft | 462 kts | 28° |
| 2026-04-15 10:11 | 39.08813 | -5.07726 | 35475 ft | 462 kts | 28° |
| 2026-04-15 10:11 | 39.11514 | -5.05488 | 35730 ft | 461 kts | 28° |
| 2026-04-15 10:11 | 39.14210 | -5.03256 | 35987 ft | 461 kts | 28° |
| 2026-04-15 10:12 | 39.16910 | -5.01021 | 36239 ft | 461 kts | 28° |
| 2026-04-15 10:12 | 39.19601 | -4.98789 | 36496 ft | 460 kts | 28° |
| 2026-04-15 10:12 | 39.22256 | -4.96583 | 36724 ft | 460 kts | 28° |
| 2026-04-15 10:12 | 39.24975 | -4.94321 | 36984 ft | 459 kts | 28° |
| 2026-04-15 10:13 | 39.27615 | -4.92120 | 37258 ft | 457 kts | 28° |
| 2026-04-15 10:13 | 39.30285 | -4.89894 | 37504 ft | 456 kts | 28° |
| 2026-04-15 10:13 | 39.32952 | -4.87669 | 37730 ft | 456 kts | 28° |
| 2026-04-15 10:13 | 39.35614 | -4.85454 | 37948 ft | 455 kts | 28° |
| 2026-04-15 10:14 | 39.38279 | -4.83238 | 38161 ft | 455 kts | 28° |
| 2026-04-15 10:14 | 39.43637 | -4.78773 | 38250 ft | 455 kts | 28° |
| 2026-04-15 10:15 | 39.48910 | -4.74354 | 38270 ft | 454 kts | 28° |
| 2026-04-15 10:15 | 39.54224 | -4.69894 | 38245 ft | 456 kts | 27° |
| 2026-04-15 10:16 | 39.59544 | -4.65427 | 38248 ft | 456 kts | 27° |
| 2026-04-15 10:16 | 39.64865 | -4.60950 | 38250 ft | 456 kts | 28° |
| 2026-04-15 10:17 | 39.70182 | -4.56458 | 38255 ft | 456 kts | 28° |
| 2026-04-15 10:17 | 39.75489 | -4.51965 | 38272 ft | 455 kts | 28° |
| 2026-04-15 10:18 | 39.80789 | -4.47476 | 38265 ft | 454 kts | 27° |
| 2026-04-15 10:18 | 39.86078 | -4.42991 | 38265 ft | 454 kts | 28° |
| 2026-04-15 10:19 | 39.91362 | -4.38490 | 38263 ft | 454 kts | 28° |
| 2026-04-15 10:19 | 39.96665 | -4.34022 | 38273 ft | 452 kts | 24° |
| 2026-04-15 10:20 | 40.02283 | -4.30483 | 38261 ft | 448 kts | 19° |
| 2026-04-15 10:20 | 40.07945 | -4.27051 | 38250 ft | 449 kts | 19° |
| 2026-04-15 10:21 | 40.13609 | -4.23594 | 38256 ft | 450 kts | 19° |
| 2026-04-15 10:21 | 40.19276 | -4.20124 | 38265 ft | 450 kts | 19° |
| 2026-04-15 10:22 | 40.24947 | -4.16657 | 38257 ft | 450 kts | 19° |
| 2026-04-15 10:22 | 40.30620 | -4.13175 | 38250 ft | 450 kts | 19° |
| 2026-04-15 10:23 | 40.36252 | -4.09703 | 38249 ft | 450 kts | 19° |
| 2026-04-15 10:23 | 40.41961 | -4.06185 | 38264 ft | 451 kts | 19° |
| 2026-04-15 10:24 | 40.47639 | -4.02680 | 38256 ft | 451 kts | 19° |
| 2026-04-15 10:24 | 40.53325 | -3.99157 | 38255 ft | 452 kts | 19° |
| 2026-04-15 10:25 | 40.58979 | -3.95661 | 38261 ft | 452 kts | 19° |
| 2026-04-15 10:25 | 40.64714 | -3.92109 | 38271 ft | 453 kts | 19° |
| 2026-04-15 10:26 | 40.70371 | -3.88585 | 38277 ft | 453 kts | 19° |
| 2026-04-15 10:26 | 40.76068 | -3.85025 | 38278 ft | 453 kts | 19° |
| 2026-04-15 10:27 | 40.81769 | -3.81466 | 38251 ft | 453 kts | 19° |
| 2026-04-15 10:27 | 40.87463 | -3.77912 | 38270 ft | 452 kts | 19° |
| 2026-04-15 10:28 | 40.93140 | -3.74357 | 38267 ft | 451 kts | 19° |
| 2026-04-15 10:28 | 40.98801 | -3.70792 | 38267 ft | 450 kts | 20° |
| 2026-04-15 10:29 | 41.03533 | -3.67811 | 38270 ft | 449 kts | 20° |
| 2026-04-15 10:29 | 41.09140 | -3.64278 | 38274 ft | 449 kts | 19° |
| 2026-04-15 10:30 | 41.14764 | -3.60664 | 38263 ft | 452 kts | 24° |
| 2026-04-15 10:30 | 41.19993 | -3.55882 | 38261 ft | 458 kts | 30° |
| 2026-04-15 10:31 | 41.25166 | -3.50942 | 38253 ft | 458 kts | 30° |
| 2026-04-15 10:31 | 41.30346 | -3.45997 | 38266 ft | 459 kts | 30° |
| 2026-04-15 10:32 | 41.35527 | -3.41032 | 38259 ft | 459 kts | 30° |
| 2026-04-15 10:32 | 41.40696 | -3.36064 | 38265 ft | 458 kts | 30° |
| 2026-04-15 10:33 | 41.45855 | -3.31104 | 38256 ft | 457 kts | 30° |
| 2026-04-15 10:33 | 41.51008 | -3.26138 | 38256 ft | 457 kts | 31° |
| 2026-04-15 10:34 | 41.56159 | -3.21154 | 38248 ft | 457 kts | 30° |
| 2026-04-15 10:34 | 41.61319 | -3.16165 | 38239 ft | 458 kts | 30° |
| 2026-04-15 10:35 | 41.66491 | -3.11172 | 38238 ft | 459 kts | 30° |
| 2026-04-15 10:35 | 41.71659 | -3.06158 | 38241 ft | 459 kts | 30° |
| 2026-04-15 10:36 | 41.76821 | -3.01135 | 38241 ft | 458 kts | 31° |
| 2026-04-15 10:36 | 41.81971 | -2.96102 | 38245 ft | 458 kts | 31° |
| 2026-04-15 10:37 | 41.87114 | -2.91066 | 38236 ft | 457 kts | 31° |
| 2026-04-15 10:37 | 41.92255 | -2.86032 | 38227 ft | 457 kts | 31° |
| 2026-04-15 10:38 | 41.97389 | -2.81000 | 38244 ft | 457 kts | 31° |
| 2026-04-15 10:38 | 42.02524 | -2.75953 | 38227 ft | 457 kts | 31° |
| 2026-04-15 10:39 | 42.07650 | -2.70885 | 38208 ft | 457 kts | 31° |
| 2026-04-15 10:39 | 42.12783 | -2.65815 | 38200 ft | 457 kts | 31° |
| 2026-04-15 10:40 | 42.17912 | -2.60740 | 38226 ft | 457 kts | 31° |
| 2026-04-15 10:40 | 42.23033 | -2.55662 | 38222 ft | 457 kts | 31° |
| 2026-04-15 10:41 | 42.28151 | -2.50573 | 38228 ft | 457 kts | 31° |
| 2026-04-15 10:41 | 42.33230 | -2.45512 | 38230 ft | 457 kts | 31° |
| 2026-04-15 10:42 | 42.38344 | -2.40405 | 38250 ft | 457 kts | 31° |
| 2026-04-15 10:42 | 42.43225 | -2.34849 | 38225 ft | 465 kts | 45° |
| 2026-04-15 10:43 | 42.46675 | -2.27360 | 38219 ft | 476 kts | 65° |
| 2026-04-15 10:43 | 42.48395 | -2.18675 | 38222 ft | 479 kts | 75° |
| 2026-04-15 10:44 | 42.49852 | -2.09875 | 38223 ft | 479 kts | 75° |
| 2026-04-15 10:44 | 42.51314 | -2.01074 | 38221 ft | 479 kts | 75° |
| 2026-04-15 10:45 | 42.52766 | -1.92258 | 38216 ft | 479 kts | 75° |
| 2026-04-15 10:45 | 42.54200 | -1.83450 | 38226 ft | 478 kts | 75° |
| 2026-04-15 10:46 | 42.55624 | -1.74648 | 38236 ft | 477 kts | 75° |
| 2026-04-15 10:46 | 42.57046 | -1.65862 | 38232 ft | 476 kts | 75° |
| 2026-04-15 10:47 | 42.58468 | -1.57088 | 38234 ft | 476 kts | 75° |
| 2026-04-15 10:47 | 42.59873 | -1.48316 | 38229 ft | 475 kts | 75° |
| 2026-04-15 10:48 | 42.61258 | -1.39565 | 38238 ft | 474 kts | 75° |
| 2026-04-15 10:48 | 42.62638 | -1.30829 | 38224 ft | 473 kts | 75° |
| 2026-04-15 10:49 | 42.64011 | -1.22110 | 38209 ft | 472 kts | 75° |
| 2026-04-15 10:49 | 42.65370 | -1.13453 | 38203 ft | 471 kts | 75° |
| 2026-04-15 10:50 | 42.66736 | -1.04701 | 38201 ft | 470 kts | 75° |
| 2026-04-15 10:50 | 42.68075 | -0.96078 | 38201 ft | 469 kts | 75° |
| 2026-04-15 10:51 | 42.69417 | -0.87414 | 38202 ft | 468 kts | 75° |
| 2026-04-15 10:51 | 42.70749 | -0.78746 | 38202 ft | 468 kts | 75° |
| 2026-04-15 10:52 | 42.72075 | -0.70019 | 38214 ft | 468 kts | 75° |
| 2026-04-15 10:52 | 42.73389 | -0.61367 | 38212 ft | 467 kts | 75° |
| 2026-04-15 10:53 | 42.74694 | -0.52735 | 38207 ft | 466 kts | 75° |
| 2026-04-15 10:53 | 42.75989 | -0.44099 | 38205 ft | 466 kts | 75° |
| 2026-04-15 10:54 | 42.77279 | -0.35465 | 38204 ft | 465 kts | 75° |
| 2026-04-15 10:54 | 42.78563 | -0.26834 | 38217 ft | 465 kts | 75° |
| 2026-04-15 10:55 | 42.80659 | -0.18619 | 38220 ft | 456 kts | 57° |
| 2026-04-15 10:55 | 42.84264 | -0.11734 | 38204 ft | 448 kts | 45° |
| 2026-04-15 10:56 | 42.88251 | -0.05127 | 38219 ft | 448 kts | 46° |
| 2026-04-15 10:56 | 42.92198 | 0.01465 | 38224 ft | 449 kts | 46° |
| 2026-04-15 10:57 | 42.96143 | 0.08070 | 38228 ft | 449 kts | 46° |
| 2026-04-15 10:57 | 43.02066 | 0.17987 | 38221 ft | 449 kts | 46° |
| 2026-04-15 10:58 | 43.06011 | 0.24618 | 38219 ft | 450 kts | 46° |
| 2026-04-15 10:58 | 43.09933 | 0.31227 | 38217 ft | 451 kts | 46° |
| 2026-04-15 10:59 | 43.13886 | 0.37897 | 38219 ft | 451 kts | 46° |
| 2026-04-15 10:59 | 43.17828 | 0.44578 | 38239 ft | 451 kts | 46° |
| 2026-04-15 11:00 | 43.21763 | 0.51251 | 38240 ft | 450 kts | 46° |
| 2026-04-15 11:00 | 43.25691 | 0.57919 | 38244 ft | 449 kts | 46° |
| 2026-04-15 11:01 | 43.29613 | 0.64599 | 38241 ft | 450 kts | 46° |
| 2026-04-15 11:01 | 43.33532 | 0.71292 | 38238 ft | 450 kts | 46° |
| 2026-04-15 11:02 | 43.37442 | 0.78002 | 38245 ft | 450 kts | 46° |
| 2026-04-15 11:02 | 43.41350 | 0.84701 | 38248 ft | 449 kts | 46° |
| 2026-04-15 11:03 | 43.45249 | 0.91398 | 38256 ft | 448 kts | 46° |
| 2026-04-15 11:03 | 43.49143 | 0.98104 | 38245 ft | 449 kts | 46° |
| 2026-04-15 11:04 | 43.53039 | 1.04825 | 38244 ft | 449 kts | 46° |
| 2026-04-15 11:04 | 43.56931 | 1.11560 | 38243 ft | 449 kts | 47° |
| 2026-04-15 11:05 | 43.60818 | 1.18303 | 38270 ft | 449 kts | 47° |
| 2026-04-15 11:05 | 43.64687 | 1.25045 | 38279 ft | 448 kts | 47° |
| 2026-04-15 11:06 | 43.68545 | 1.31790 | 38272 ft | 447 kts | 47° |
| 2026-04-15 11:06 | 43.72299 | 1.38668 | 38269 ft | 448 kts | 49° |
| 2026-04-15 11:07 | 43.75943 | 1.45596 | 38266 ft | 449 kts | 49° |
| 2026-04-15 11:07 | 43.79617 | 1.52577 | 38257 ft | 448 kts | 49° |
| 2026-04-15 11:08 | 43.83303 | 1.59528 | 38267 ft | 447 kts | 49° |
| 2026-04-15 11:08 | 43.86988 | 1.66455 | 38255 ft | 446 kts | 49° |
| 2026-04-15 11:09 | 43.90663 | 1.73388 | 38249 ft | 446 kts | 49° |
| 2026-04-15 11:09 | 43.94321 | 1.80334 | 38249 ft | 446 kts | 49° |
| 2026-04-15 11:10 | 43.97934 | 1.87331 | 38241 ft | 446 kts | 50° |
| 2026-04-15 11:10 | 44.01453 | 1.94431 | 38259 ft | 446 kts | 51° |
| 2026-04-15 11:11 | 44.04951 | 2.01540 | 38258 ft | 445 kts | 51° |
| 2026-04-15 11:11 | 44.08457 | 2.08627 | 38246 ft | 444 kts | 51° |
| 2026-04-15 11:12 | 44.11967 | 2.15691 | 38248 ft | 444 kts | 51° |
| 2026-04-15 11:12 | 44.15469 | 2.22771 | 38246 ft | 444 kts | 51° |
| 2026-04-15 11:13 | 44.18964 | 2.29857 | 38258 ft | 444 kts | 51° |
| 2026-04-15 11:13 | 44.21863 | 2.35746 | 38258 ft | 443 kts | 51° |
| 2026-04-15 11:14 | 44.25335 | 2.42821 | 38251 ft | 441 kts | 51° |
| 2026-04-15 11:14 | 44.28789 | 2.49896 | 38242 ft | 441 kts | 51° |
| 2026-04-15 11:15 | 44.32237 | 2.56973 | 38264 ft | 441 kts | 51° |
| 2026-04-15 11:15 | 44.35684 | 2.64052 | 38261 ft | 441 kts | 51° |
| 2026-04-15 11:16 | 44.39129 | 2.71134 | 38280 ft | 440 kts | 51° |
| 2026-04-15 11:16 | 44.42556 | 2.78204 | 38259 ft | 439 kts | 51° |
| 2026-04-15 11:17 | 44.45970 | 2.85278 | 38231 ft | 438 kts | 51° |
| 2026-04-15 11:17 | 44.49380 | 2.92343 | 38220 ft | 438 kts | 51° |
| 2026-04-15 11:18 | 44.52764 | 2.99363 | 38218 ft | 437 kts | 51° |
| 2026-04-15 11:18 | 44.56159 | 3.06437 | 38224 ft | 437 kts | 51° |
| 2026-04-15 11:19 | 44.59537 | 3.13517 | 38221 ft | 436 kts | 51° |
| 2026-04-15 11:19 | 44.62797 | 3.20701 | 38213 ft | 437 kts | 55° |
| 2026-04-15 11:20 | 44.65764 | 3.28170 | 38212 ft | 438 kts | 57° |
| 2026-04-15 11:20 | 44.68666 | 3.35694 | 38209 ft | 438 kts | 57° |
| 2026-04-15 11:21 | 44.71613 | 3.43173 | 38212 ft | 437 kts | 56° |
| 2026-04-15 11:21 | 44.74594 | 3.50630 | 38207 ft | 437 kts | 56° |
| 2026-04-15 11:22 | 44.77570 | 3.58085 | 38205 ft | 437 kts | 56° |
| 2026-04-15 11:22 | 44.80542 | 3.65559 | 38210 ft | 437 kts | 56° |
| 2026-04-15 11:23 | 44.83500 | 3.73044 | 38209 ft | 437 kts | 56° |
| 2026-04-15 11:23 | 44.86447 | 3.80546 | 38219 ft | 438 kts | 56° |
| 2026-04-15 11:24 | 44.89393 | 3.88044 | 38211 ft | 436 kts | 56° |
| 2026-04-15 11:24 | 44.90863 | 3.91778 | 37935 ft | 434 kts | 56° |
| 2026-04-15 11:24 | 44.92325 | 3.95495 | 37665 ft | 433 kts | 56° |
| 2026-04-15 11:25 | 44.93784 | 3.99210 | 37395 ft | 433 kts | 56° |
| 2026-04-15 11:25 | 44.95243 | 4.02936 | 37131 ft | 434 kts | 57° |
| 2026-04-15 11:25 | 44.96702 | 4.06675 | 36876 ft | 435 kts | 57° |
| 2026-04-15 11:25 | 44.98158 | 4.10425 | 36611 ft | 436 kts | 57° |
| 2026-04-15 11:26 | 44.99615 | 4.14181 | 36354 ft | 436 kts | 57° |
| 2026-04-15 11:26 | 45.01070 | 4.17930 | 36111 ft | 435 kts | 57° |
| 2026-04-15 11:26 | 45.02517 | 4.21659 | 35714 ft | 431 kts | 57° |
| 2026-04-15 11:26 | 45.03953 | 4.25361 | 35171 ft | 428 kts | 57° |
| 2026-04-15 11:27 | 45.05361 | 4.28992 | 34652 ft | 426 kts | 57° |
| 2026-04-15 11:27 | 45.06781 | 4.32662 | 34109 ft | 424 kts | 57° |
| 2026-04-15 11:27 | 45.08191 | 4.36314 | 33550 ft | 421 kts | 57° |
| 2026-04-15 11:27 | 45.09586 | 4.39937 | 33033 ft | 418 kts | 57° |
| 2026-04-15 11:28 | 45.10970 | 4.43537 | 32521 ft | 415 kts | 57° |
| 2026-04-15 11:28 | 45.12341 | 4.47110 | 31994 ft | 412 kts | 57° |
| 2026-04-15 11:28 | 45.13703 | 4.50660 | 31510 ft | 409 kts | 57° |
| 2026-04-15 11:28 | 45.15055 | 4.54184 | 31014 ft | 406 kts | 57° |
| 2026-04-15 11:29 | 45.16394 | 4.57684 | 30535 ft | 403 kts | 57° |
| 2026-04-15 11:29 | 45.17725 | 4.61159 | 30023 ft | 400 kts | 57° |
| 2026-04-15 11:29 | 45.19042 | 4.64600 | 29558 ft | 395 kts | 57° |
| 2026-04-15 11:29 | 45.20342 | 4.68001 | 29099 ft | 390 kts | 58° |
| 2026-04-15 11:30 | 45.21622 | 4.71357 | 28669 ft | 384 kts | 58° |
| 2026-04-15 11:30 | 45.22883 | 4.74666 | 28255 ft | 380 kts | 58° |
| 2026-04-15 11:30 | 45.24131 | 4.77950 | 27806 ft | 376 kts | 58° |
| 2026-04-15 11:30 | 45.25362 | 4.81196 | 27372 ft | 371 kts | 58° |
| 2026-04-15 11:31 | 45.26580 | 4.84406 | 26936 ft | 368 kts | 58° |
| 2026-04-15 11:31 | 45.27787 | 4.87590 | 26495 ft | 365 kts | 58° |
| 2026-04-15 11:31 | 45.28986 | 4.90749 | 26067 ft | 362 kts | 58° |
| 2026-04-15 11:31 | 45.30178 | 4.93893 | 25597 ft | 361 kts | 59° |
| 2026-04-15 11:32 | 45.31363 | 4.97023 | 25156 ft | 359 kts | 59° |
| 2026-04-15 11:32 | 45.32543 | 5.00144 | 24684 ft | 358 kts | 59° |
| 2026-04-15 11:32 | 45.33718 | 5.03260 | 24227 ft | 357 kts | 59° |
| 2026-04-15 11:32 | 45.34889 | 5.06374 | 23741 ft | 357 kts | 59° |
| 2026-04-15 11:33 | 45.36056 | 5.09481 | 23226 ft | 355 kts | 59° |
| 2026-04-15 11:33 | 45.37213 | 5.12573 | 22763 ft | 353 kts | 60° |
| 2026-04-15 11:33 | 45.38359 | 5.15639 | 22309 ft | 350 kts | 59° |
| 2026-04-15 11:33 | 45.39501 | 5.18690 | 21862 ft | 348 kts | 59° |
| 2026-04-15 11:34 | 45.40620 | 5.21683 | 21425 ft | 346 kts | 60° |
| 2026-04-15 11:34 | 45.41750 | 5.24702 | 20987 ft | 344 kts | 59° |
| 2026-04-15 11:34 | 45.42874 | 5.27699 | 20554 ft | 342 kts | 60° |
| 2026-04-15 11:34 | 45.43990 | 5.30684 | 20119 ft | 341 kts | 60° |
| 2026-04-15 11:35 | 45.45097 | 5.33660 | 19695 ft | 339 kts | 60° |
| 2026-04-15 11:35 | 45.46197 | 5.36623 | 19267 ft | 338 kts | 60° |
| 2026-04-15 11:35 | 45.47297 | 5.39580 | 18845 ft | 337 kts | 60° |
| 2026-04-15 11:35 | 45.48521 | 5.42411 | 18404 ft | 335 kts | 50° |
| 2026-04-15 11:36 | 45.50145 | 5.44754 | 17964 ft | 331 kts | 37° |
| 2026-04-15 11:36 | 45.52067 | 5.46524 | 17561 ft | 328 kts | 29° |
| 2026-04-15 11:36 | 45.54033 | 5.48143 | 17157 ft | 326 kts | 29° |
| 2026-04-15 11:36 | 45.55989 | 5.49761 | 16764 ft | 324 kts | 29° |
| 2026-04-15 11:37 | 45.57934 | 5.51374 | 16375 ft | 322 kts | 29° |
| 2026-04-15 11:37 | 45.59854 | 5.52972 | 16193 ft | 315 kts | 29° |
| 2026-04-15 11:37 | 45.61753 | 5.54554 | 15658 ft | 319 kts | 30° |
| 2026-04-15 11:37 | 45.63676 | 5.56158 | 15240 ft | 320 kts | 30° |
| 2026-04-15 11:38 | 45.65595 | 5.57763 | 14857 ft | 319 kts | 30° |
| 2026-04-15 11:38 | 45.67506 | 5.59359 | 14485 ft | 318 kts | 30° |
| 2026-04-15 11:38 | 45.69406 | 5.60910 | 14312 ft | 310 kts | 28° |
| 2026-04-15 11:38 | 45.71278 | 5.62393 | 14042 ft | 306 kts | 28° |
| 2026-04-15 11:39 | 45.73143 | 5.63849 | 13672 ft | 305 kts | 28° |
| 2026-04-15 11:39 | 45.74998 | 5.65293 | 13168 ft | 302 kts | 28° |
| 2026-04-15 11:39 | 45.76840 | 5.66732 | 12631 ft | 301 kts | 28° |
| 2026-04-15 11:39 | 45.78663 | 5.68161 | 12219 ft | 296 kts | 28° |
| 2026-04-15 11:40 | 45.80445 | 5.69568 | 11846 ft | 289 kts | 28° |
| 2026-04-15 11:40 | 45.82188 | 5.70953 | 11487 ft | 284 kts | 28° |
| 2026-04-15 11:40 | 45.83897 | 5.72313 | 11133 ft | 278 kts | 28° |
| 2026-04-15 11:40 | 45.85576 | 5.73649 | 10761 ft | 274 kts | 28° |
| 2026-04-15 11:41 | 45.87231 | 5.74959 | 10409 ft | 269 kts | 27° |
| 2026-04-15 11:41 | 45.88959 | 5.75931 | 10002 ft | 271 kts | 14° |
| 2026-04-15 11:41 | 45.90864 | 5.76491 | 9355 ft | 284 kts | 11° |
| 2026-04-15 11:41 | 45.92826 | 5.77029 | 8773 ft | 290 kts | 11° |
| 2026-04-15 11:42 | 45.94768 | 5.77565 | 8445 ft | 286 kts | 11° |
| 2026-04-15 11:42 | 45.96746 | 5.78112 | 8043 ft | 285 kts | 11° |
| 2026-04-15 11:42 | 45.98648 | 5.78640 | 7871 ft | 269 kts | 11° |
| 2026-04-15 11:42 | 46.00432 | 5.79138 | 7592 ft | 254 kts | 11° |
| 2026-04-15 11:43 | 46.02108 | 5.79769 | 7302 ft | 247 kts | 26° |
| 2026-04-15 11:43 | 46.03457 | 5.81207 | 7014 ft | 238 kts | 45° |
| 2026-04-15 11:43 | 46.04580 | 5.82843 | 6725 ft | 228 kts | 46° |
| 2026-04-15 11:43 | 46.05691 | 5.84463 | 6418 ft | 220 kts | 45° |
| 2026-04-15 11:44 | 46.06747 | 5.85997 | 6030 ft | 217 kts | 45° |
| 2026-04-15 11:44 | 46.07799 | 5.87527 | 5664 ft | 213 kts | 45° |
| 2026-04-15 11:44 | 46.08829 | 5.89025 | 5374 ft | 209 kts | 45° |
| 2026-04-15 11:44 | 46.09856 | 5.90518 | 5088 ft | 210 kts | 45° |
| 2026-04-15 11:45 | 46.10870 | 5.91994 | 4820 ft | 202 kts | 44° |
| 2026-04-15 11:45 | 46.11820 | 5.93378 | 4535 ft | 187 kts | 44° |
| 2026-04-15 11:45 | 46.12707 | 5.94670 | 4285 ft | 176 kts | 45° |
| 2026-04-15 11:45 | 46.13541 | 5.95886 | 4055 ft | 165 kts | 44° |
| 2026-04-15 11:46 | 46.14321 | 5.97023 | 3853 ft | 155 kts | 44° |
| 2026-04-15 11:46 | 46.15061 | 5.98103 | 3639 ft | 149 kts | 44° |
| 2026-04-15 11:46 | 46.15764 | 5.99128 | 3466 ft | 141 kts | 44° |
| 2026-04-15 11:46 | 46.16451 | 6.00132 | 3270 ft | 140 kts | 44° |
| 2026-04-15 11:47 | 46.17134 | 6.01129 | 3075 ft | 139 kts | 45° |
| 2026-04-15 11:47 | 46.17812 | 6.02119 | 2894 ft | 139 kts | 44° |
| 2026-04-15 11:47 | 46.18488 | 6.03107 | 2702 ft | 138 kts | 45° |
| 2026-04-15 11:47 | 46.19156 | 6.04087 | 2506 ft | 137 kts | 46° |
| 2026-04-15 11:48 | 46.19822 | 6.05068 | 2311 ft | 136 kts | 46° |
| 2026-04-15 11:48 | 46.20488 | 6.06041 | 2080 ft | 136 kts | 46° |
| 2026-04-15 11:48 | 46.21150 | 6.07004 | 1900 ft | 135 kts | 45° |
| 2026-04-15 11:48 | 46.21811 | 6.07965 | 1735 ft | 135 kts | 46° |
| 2026-04-15 11:49 | 46.22469 | 6.08928 | 1556 ft | 135 kts | 46° |
| 2026-04-15 11:49 | 46.23117 | 6.09887 | 1413 ft | 127 kts | 46° |
| 2026-04-15 11:49 | 46.23593 | 6.10587 | 1385 ft | 57 kts | 45° |
| 2026-04-15 11:49 | 46.23777 | 6.10855 | 1381 ft | 33 kts | 45° |
| 2026-04-15 11:50 | 46.23867 | 6.11024 | 1380 ft | 17 kts | 97° |
| 2026-04-15 11:50 | 46.23777 | 6.11084 | 1381 ft | 13 kts | 172° |
| 2026-04-15 11:50 | 46.23712 | 6.11083 | 1386 ft | 5 kts | 201° |
| 2026-04-15 11:50 | 46.23696 | 6.11066 | 1384 ft | 3 kts | 223° |
| 2026-04-15 11:51 | 46.23671 | 6.11031 | 1386 ft | 7 kts | 225° |
| 2026-04-15 11:51 | 46.23621 | 6.10956 | 1388 ft | 14 kts | 226° |
| 2026-04-15 11:51 | 46.23538 | 6.10835 | 1389 ft | 20 kts | 225° |
| 2026-04-15 11:51 | 46.23438 | 6.10689 | 1398 ft | 20 kts | 224° |
| 2026-04-15 11:52 | 46.23348 | 6.10567 | 1398 ft | 16 kts | 225° |
| 2026-04-15 11:52 | 46.23275 | 6.10461 | 1398 ft | 14 kts | 225° |
| 2026-04-15 11:52 | 46.23213 | 6.10369 | 1398 ft | 12 kts | 226° |
| 2026-04-15 11:52 | 46.23160 | 6.10291 | 1404 ft | 10 kts | 226° |
| 2026-04-15 11:53 | 46.23119 | 6.10221 | 1402 ft | 8 kts | 226° |
| 2026-04-15 11:53 | 46.23082 | 6.10166 | 1403 ft | 7 kts | 223° |
| 2026-04-15 11:53 | 46.23043 | 6.10176 | 1400 ft | 6 kts | 139° |
| 2026-04-15 11:53 | 46.23013 | 6.10222 | 1401 ft | 6 kts | 126° |
| 2026-04-15 11:54 | 46.23009 | 6.10272 | 1396 ft | 4 kts | 90° |
| 2026-04-15 11:54 | 46.23009 | 6.10309 | 1401 ft | 3 kts | 90° |
| 2026-04-15 11:54 | 46.23009 | 6.10335 | 1397 ft | 2 kts | 91° |
| 2026-04-15 11:54 | 46.23009 | 6.10341 | 1393 ft | 0 kts | 91° |